createdAt,value
2023-03-09T00:02:00.237Z,93.20
2023-03-09T00:04:27.844Z,108.23
2023-03-09T00:06:55.349Z,136.57
2023-03-09T00:09:22.963Z,98.07
2023-03-09T00:11:50.582Z,108.80
2023-03-09T00:14:19.524Z,100.67
2023-03-09T00:16:47.038Z,47.00
2023-03-09T00:19:14.965Z,80.67
2023-03-09T00:21:42.651Z,38.73
2023-03-09T00:24:15.105Z,46.90
2023-03-09T00:26:43.754Z,51.17
2023-03-09T00:29:12.514Z,92.10
2023-03-09T00:31:40.533Z,79.60
2023-03-09T00:34:08.536Z,36.13
2023-03-09T00:36:36.052Z,29.43
2023-03-09T00:39:03.575Z,69.33
2023-03-09T00:41:31.236Z,71.97
2023-03-09T00:44:02.487Z,84.17
2023-03-09T00:46:30.924Z,60.30
2023-03-09T00:48:58.914Z,88.47
2023-03-09T00:51:27.190Z,94.77
2023-03-09T00:53:56.024Z,35.00
2023-03-09T00:56:24.575Z,79.63
2023-03-09T00:58:52.057Z,78.67
2023-03-09T01:01:20.132Z,88.97
2023-03-09T01:03:47.923Z,96.77
2023-03-09T01:06:15.620Z,55.37
2023-03-09T01:08:43.663Z,63.10
2023-03-09T01:11:12.375Z,76.80
2023-03-09T01:13:39.924Z,44.43
2023-03-09T01:16:07.596Z,69.67
2023-03-09T01:18:35.185Z,62.50
2023-03-09T01:21:02.741Z,51.07
2023-03-09T01:23:30.248Z,82.40
2023-03-09T01:25:57.911Z,72.60
2023-03-09T01:28:25.470Z,75.77
2023-03-09T01:30:53.119Z,102.27
2023-03-09T01:33:20.687Z,62.10
2023-03-09T01:35:48.326Z,66.73
2023-03-09T01:38:15.976Z,85.77
2023-03-09T01:40:46.085Z,54.20
2023-03-09T01:43:29.003Z,30.77
2023-03-09T01:46:15.255Z,81.83
2023-03-09T01:48:43.232Z,69.17
2023-03-09T01:51:10.732Z,110.20
2023-03-09T01:53:38.447Z,103.00
2023-03-09T01:56:06.133Z,121.03
2023-03-09T01:58:34.727Z,113.10
2023-03-09T02:01:02.276Z,94.10
2023-03-09T02:03:31.466Z,102.40
2023-03-09T02:06:05.002Z,85.90
2023-03-09T02:08:33.427Z,95.97
2023-03-09T02:11:03.442Z,117.63
2023-03-09T02:13:32.714Z,98.87
2023-03-09T02:16:00.293Z,95.70
2023-03-09T02:18:28.131Z,137.67
2023-03-09T02:20:55.586Z,142.37
2023-03-09T02:23:33.433Z,96.37
2023-03-09T02:26:04.008Z,129.37
2023-03-09T02:28:31.678Z,92.77
2023-03-09T02:30:59.250Z,145.73
2023-03-09T02:33:30.615Z,272.37
2023-03-09T02:35:59.324Z,109.83
2023-03-09T02:38:27.177Z,181.13
2023-03-09T02:40:56.246Z,128.23
2023-03-09T02:43:26.270Z,120.83
2023-03-09T02:45:53.865Z,162.17
2023-03-09T02:48:21.372Z,154.03
2023-03-09T02:50:48.958Z,132.37
2023-03-09T02:53:16.531Z,180.00
2023-03-09T02:55:44.106Z,164.57
2023-03-09T02:58:12.034Z,114.87
2023-03-09T03:00:39.687Z,111.37
2023-03-09T03:03:07.220Z,92.77
2023-03-09T03:05:34.843Z,162.57
2023-03-09T03:08:02.560Z,106.73
2023-03-09T03:10:30.087Z,105.70
2023-03-09T03:12:57.608Z,132.53
2023-03-09T03:15:25.257Z,82.97
2023-03-09T03:17:52.767Z,117.87
2023-03-09T03:20:20.358Z,241.23
2023-03-09T03:22:47.962Z,178.67
2023-03-09T03:25:15.548Z,155.20
2023-03-09T03:27:43.053Z,170.37
2023-03-09T03:30:11.613Z,130.60
2023-03-09T03:32:39.265Z,149.03
2023-03-09T03:35:07.137Z,123.53
2023-03-09T03:37:34.647Z,166.20
2023-03-09T03:40:02.229Z,116.77
2023-03-09T03:42:29.716Z,159.87
2023-03-09T03:44:57.308Z,121.23
2023-03-09T03:47:24.840Z,116.93
2023-03-09T03:49:52.433Z,156.33
2023-03-09T03:52:19.897Z,122.67
2023-03-09T03:54:47.495Z,125.07
2023-03-09T03:57:14.977Z,111.03
2023-03-09T03:59:42.536Z,188.43
2023-03-09T04:02:10.025Z,111.67
2023-03-09T04:04:37.600Z,117.03
2023-03-09T04:07:05.144Z,109.87
2023-03-09T04:09:32.679Z,108.70
2023-03-09T04:12:00.149Z,118.47
2023-03-09T04:14:27.784Z,154.10
2023-03-09T04:16:57.645Z,143.67
2023-03-09T04:19:25.578Z,140.37
2023-03-09T04:21:53.044Z,108.93
2023-03-09T04:24:20.624Z,131.43
2023-03-09T04:26:48.130Z,163.03
2023-03-09T04:29:15.689Z,159.27
2023-03-09T04:31:43.188Z,130.07
2023-03-09T04:34:13.826Z,166.53
2023-03-09T04:36:41.357Z,224.47
2023-03-09T04:39:08.858Z,147.57
2023-03-09T04:41:36.695Z,290.53
2023-03-09T04:44:04.437Z,134.50
2023-03-09T04:46:32.171Z,174.17
2023-03-09T04:48:59.891Z,125.97
2023-03-09T04:51:27.590Z,227.93
2023-03-09T04:53:55.077Z,163.23
2023-03-09T04:56:22.710Z,149.57
2023-03-09T04:58:50.193Z,176.63
2023-03-09T05:01:17.965Z,167.33
2023-03-09T05:03:45.554Z,127.93
2023-03-09T05:06:13.158Z,154.63
2023-03-09T05:08:40.723Z,140.47
2023-03-09T05:11:08.225Z,203.30
2023-03-09T05:13:35.769Z,169.57
2023-03-09T05:16:07.395Z,119.03
2023-03-09T05:18:35.718Z,111.80
2023-03-09T05:21:07.341Z,160.40
2023-03-09T05:23:35.392Z,180.13
2023-03-09T05:26:03.447Z,139.53
2023-03-09T05:28:30.987Z,120.77
2023-03-09T05:30:58.602Z,124.73
2023-03-09T05:33:26.223Z,220.50
2023-03-09T05:35:53.899Z,187.63
2023-03-09T05:38:21.719Z,197.03
2023-03-09T05:40:49.230Z,127.10
2023-03-09T05:43:16.808Z,123.90
2023-03-09T05:45:44.501Z,137.47
2023-03-09T05:48:12.037Z,173.57
2023-03-09T05:50:39.800Z,129.23
2023-03-09T05:53:07.640Z,157.37
2023-03-09T05:55:35.161Z,135.13
2023-03-09T05:58:02.752Z,175.87
2023-03-09T06:00:30.310Z,122.57
2023-03-09T06:02:58.071Z,158.07
2023-03-09T06:05:25.646Z,141.17
2023-03-09T06:07:53.218Z,172.17
2023-03-09T06:10:20.693Z,213.13
2023-03-09T06:12:48.262Z,192.50
2023-03-09T06:15:15.776Z,115.07
2023-03-09T06:17:43.333Z,153.83
2023-03-09T06:20:11.244Z,164.90
2023-03-09T06:22:38.832Z,128.83
2023-03-09T06:25:06.517Z,191.93
2023-03-09T06:27:35.322Z,195.83
2023-03-09T06:30:02.843Z,143.03
2023-03-09T06:32:32.610Z,126.17
2023-03-09T06:35:00.183Z,108.93
2023-03-09T06:37:28.295Z,140.77
2023-03-09T06:39:56.536Z,158.87
2023-03-09T06:42:24.151Z,137.93
2023-03-09T06:44:51.829Z,121.07
2023-03-09T06:47:19.365Z,110.43
2023-03-09T06:49:46.891Z,115.17
2023-03-09T06:52:14.447Z,121.90
2023-03-09T06:54:41.927Z,95.87
2023-03-09T06:57:10.082Z,117.87
2023-03-09T06:59:37.615Z,134.07
2023-03-09T07:02:05.218Z,125.87
2023-03-09T07:04:32.854Z,104.00
2023-03-09T07:07:00.415Z,120.97
2023-03-09T07:09:27.918Z,113.60
2023-03-09T07:11:55.565Z,136.40
2023-03-09T07:14:23.035Z,153.27
2023-03-09T07:16:54.290Z,142.33
2023-03-09T07:19:22.408Z,123.77
2023-03-09T07:21:50.579Z,130.27
2023-03-09T07:24:19.979Z,141.07
2023-03-09T07:26:51.020Z,112.40
2023-03-09T07:29:18.578Z,117.83
2023-03-09T07:31:46.101Z,119.20
2023-03-09T07:34:13.730Z,108.13
2023-03-09T07:36:41.324Z,96.83
2023-03-09T07:39:08.900Z,88.83
2023-03-09T07:41:36.414Z,87.87
2023-03-09T07:44:04.068Z,97.10
2023-03-09T07:46:31.698Z,117.73
2023-03-09T07:48:59.270Z,95.10
2023-03-09T07:51:26.751Z,93.17
2023-03-09T07:53:54.341Z,88.50
2023-03-09T07:56:21.855Z,109.60
2023-03-09T07:58:49.437Z,104.17
2023-03-09T08:01:18.518Z,87.20
2023-03-09T08:03:46.857Z,107.73
2023-03-09T08:06:14.885Z,132.90
2023-03-09T08:08:42.734Z,105.53
2023-03-09T08:11:10.262Z,105.30
2023-03-09T08:13:37.998Z,105.70
2023-03-09T08:16:07.061Z,127.47
2023-03-09T08:18:35.350Z,118.13
2023-03-09T08:21:06.703Z,108.90
2023-03-09T08:23:35.557Z,119.03
2023-03-09T08:26:03.321Z,96.80
2023-03-09T08:28:31.298Z,106.27
2023-03-09T08:30:58.838Z,95.17
2023-03-09T08:33:26.884Z,104.87
2023-03-09T08:35:54.427Z,114.03
2023-03-09T08:38:22.166Z,90.87
2023-03-09T08:40:49.647Z,109.93
2023-03-09T08:43:17.327Z,92.33
2023-03-09T08:45:44.860Z,122.77
2023-03-09T08:48:12.413Z,111.43
2023-03-09T08:50:39.927Z,111.67
2023-03-09T08:53:07.540Z,101.90
2023-03-09T08:55:35.071Z,100.57
2023-03-09T08:58:02.709Z,110.40
2023-03-09T09:00:31.214Z,89.40
2023-03-09T09:02:58.952Z,95.77
2023-03-09T09:05:26.551Z,98.30
2023-03-09T09:07:54.155Z,101.10
2023-03-09T09:10:34.682Z,100.80
2023-03-09T09:13:03.206Z,91.93
2023-03-09T09:15:30.821Z,100.07
2023-03-09T09:17:58.465Z,100.43
2023-03-09T09:20:26.230Z,97.73
2023-03-09T09:22:53.862Z,101.53
2023-03-09T09:25:21.390Z,70.93
2023-03-09T09:27:50.689Z,79.97
2023-03-09T09:30:19.171Z,84.47
2023-03-09T09:32:47.033Z,84.10
2023-03-09T09:35:14.632Z,86.57
2023-03-09T09:37:42.370Z,81.00
2023-03-09T09:40:14.578Z,83.10
2023-03-09T09:42:43.314Z,78.13
2023-03-09T09:45:31.122Z,79.20
2023-03-09T09:48:00.557Z,75.97
2023-03-09T09:50:48.288Z,61.10
2023-03-09T09:53:18.894Z,70.50
2023-03-09T09:55:46.577Z,73.17
2023-03-09T09:58:27.537Z,75.83
2023-03-09T10:00:56.175Z,67.97
2023-03-09T10:03:23.937Z,68.37
2023-03-09T10:06:00.225Z,66.13
2023-03-09T10:08:46.434Z,65.03
2023-03-09T10:11:28.630Z,54.23
2023-03-09T10:14:05.310Z,56.03
2023-03-09T10:16:39.168Z,54.57
2023-03-09T10:19:09.200Z,54.37
2023-03-09T10:21:49.699Z,60.57
2023-03-09T10:24:24.504Z,57.77
2023-03-09T10:26:52.194Z,63.33
2023-03-09T10:29:24.728Z,61.03
2023-03-09T10:32:00.767Z,57.20
2023-03-09T10:34:28.418Z,56.10
2023-03-09T10:36:59.677Z,58.23
2023-03-09T10:39:29.020Z,55.00
2023-03-09T10:41:57.573Z,60.17
2023-03-09T10:44:25.635Z,48.87
2023-03-09T10:47:03.177Z,52.93
2023-03-09T10:49:31.509Z,49.77
2023-03-09T10:52:04.078Z,54.53
2023-03-09T10:54:31.645Z,49.67
2023-03-09T10:56:59.401Z,55.67
2023-03-09T10:59:27.789Z,52.47
2023-03-09T11:01:56.911Z,46.20
2023-03-09T11:04:25.633Z,48.83
2023-03-09T11:06:53.123Z,40.67
2023-03-09T11:09:23.045Z,45.83
2023-03-09T11:11:50.580Z,42.13
2023-03-09T11:14:25.545Z,48.20
2023-03-09T11:16:54.472Z,41.73
2023-03-09T11:19:22.361Z,43.53
2023-03-09T11:21:59.093Z,42.67
2023-03-09T11:24:32.166Z,45.03
2023-03-09T11:27:07.646Z,47.90
2023-03-09T11:29:35.201Z,45.17
2023-03-09T11:32:02.981Z,45.03
2023-03-09T11:34:34.636Z,47.73
2023-03-09T11:37:11.360Z,44.50
2023-03-09T11:39:43.374Z,46.43
2023-03-09T11:42:13.459Z,42.07
2023-03-09T11:44:45.261Z,40.37
2023-03-09T11:47:31.549Z,42.60
2023-03-09T11:50:02.949Z,50.40
2023-03-09T11:52:33.740Z,46.60
2023-03-09T11:55:03.197Z,42.57
2023-03-09T11:57:31.721Z,49.60
2023-03-09T12:00:04.806Z,50.57
2023-03-09T12:02:47.837Z,47.27
2023-03-09T12:05:16.635Z,52.27
2023-03-09T12:07:47.254Z,44.87
2023-03-09T12:10:19.244Z,51.33
2023-03-09T12:12:50.524Z,46.07
2023-03-09T12:15:18.055Z,45.53
2023-03-09T12:18:06.069Z,43.87
2023-03-09T12:20:39.600Z,48.80
2023-03-09T12:23:27.194Z,47.27
2023-03-09T12:25:58.337Z,46.60
2023-03-09T12:28:25.962Z,44.53
2023-03-09T12:30:57.127Z,52.47
2023-03-09T12:33:42.829Z,46.90
2023-03-09T12:36:22.520Z,47.63
2023-03-09T12:39:08.534Z,43.47
2023-03-09T12:41:54.996Z,49.57
2023-03-09T12:44:42.470Z,50.93
2023-03-09T12:47:22.112Z,49.00
2023-03-09T12:49:50.762Z,45.83
2023-03-09T12:52:24.704Z,56.20
2023-03-09T12:55:00.044Z,52.17
2023-03-09T12:57:27.807Z,48.47
2023-03-09T12:59:55.336Z,49.40
2023-03-09T13:02:34.016Z,47.97
2023-03-09T13:05:20.880Z,46.57
2023-03-09T13:07:56.389Z,49.63
2023-03-09T13:10:27.771Z,56.63
2023-03-09T13:12:55.880Z,47.90
2023-03-09T13:15:26.302Z,57.63
2023-03-09T13:18:25.501Z,56.13
2023-03-09T13:20:54.249Z,54.00
2023-03-09T13:23:23.335Z,52.53
2023-03-09T13:25:52.040Z,51.07
2023-03-09T13:28:22.676Z,55.20
2023-03-09T13:30:51.352Z,46.87
2023-03-09T13:33:21.089Z,48.53
2023-03-09T13:35:50.396Z,46.57
2023-03-09T13:38:23.833Z,46.20
2023-03-09T13:40:55.915Z,46.90
2023-03-09T13:43:26.384Z,50.03
2023-03-09T13:45:58.629Z,47.20
2023-03-09T13:48:26.274Z,55.17
2023-03-09T13:50:54.206Z,45.47
2023-03-09T13:53:23.693Z,53.80
2023-03-09T13:56:00.129Z,54.63
2023-03-09T13:58:28.684Z,55.00
2023-03-09T14:00:57.521Z,55.53
2023-03-09T14:03:25.938Z,62.87
2023-03-09T14:08:47.928Z,85.17
2023-03-09T14:11:21.386Z,57.70
2023-03-09T14:13:55.018Z,73.37
2023-03-09T14:16:22.677Z,64.70
2023-03-09T14:18:51.863Z,51.17
2023-03-09T14:21:19.403Z,63.77
2023-03-09T14:23:47.018Z,60.63
2023-03-09T14:26:23.780Z,64.70
2023-03-09T14:29:02.849Z,68.60
2023-03-09T14:31:30.720Z,65.73
2023-03-09T14:34:02.766Z,63.20
2023-03-09T14:36:50.687Z,84.60
2023-03-09T14:39:23.757Z,65.23
2023-03-09T14:42:16.163Z,56.97
2023-03-09T14:45:07.190Z,47.07
2023-03-09T14:47:34.789Z,56.73
2023-03-09T14:50:02.289Z,51.70
2023-03-09T14:52:30.348Z,55.40
2023-03-09T14:54:59.373Z,51.57
2023-03-09T14:57:27.063Z,44.67
2023-03-09T14:59:54.596Z,42.67
2023-03-09T15:02:22.482Z,42.60
2023-03-09T15:04:50.205Z,39.37
2023-03-09T15:07:19.423Z,38.93
2023-03-09T15:09:47.013Z,42.67
2023-03-09T15:12:16.992Z,38.67
2023-03-09T15:14:45.749Z,35.23
2023-03-09T15:17:17.820Z,34.90
2023-03-09T15:19:45.541Z,40.40
2023-03-09T15:22:14.524Z,36.63
2023-03-09T15:24:42.403Z,35.97
2023-03-09T15:27:10.445Z,32.10
2023-03-09T15:29:38.557Z,36.07
2023-03-09T15:32:07.073Z,38.03
2023-03-09T15:34:35.611Z,42.97
2023-03-09T15:37:03.195Z,36.93
2023-03-09T15:39:30.943Z,36.07
2023-03-09T15:42:00.982Z,37.33
2023-03-09T15:44:30.563Z,39.50
2023-03-09T15:47:00.060Z,38.47
2023-03-09T15:49:27.590Z,39.73
2023-03-09T15:51:55.173Z,43.37
2023-03-09T15:54:22.688Z,40.73
2023-03-09T15:56:50.527Z,42.13
2023-03-09T15:59:18.121Z,38.93
2023-03-09T16:01:46.244Z,40.00
2023-03-09T16:04:13.881Z,46.13
2023-03-09T16:06:41.468Z,38.40
2023-03-09T16:09:09.052Z,35.07
2023-03-09T16:11:36.859Z,41.67
2023-03-09T16:14:04.453Z,36.53
2023-03-09T16:16:32.096Z,41.97
2023-03-09T16:18:59.644Z,41.27
2023-03-09T16:21:27.200Z,36.57
2023-03-09T16:23:54.702Z,37.60
2023-03-09T16:26:23.220Z,35.30
2023-03-09T16:28:50.916Z,37.93
2023-03-09T16:31:20.123Z,39.00
2023-03-09T16:33:47.727Z,35.93
2023-03-09T16:36:15.462Z,36.67
2023-03-09T16:38:43.039Z,34.07
2023-03-09T16:41:11.952Z,37.23
2023-03-09T16:43:39.485Z,30.73
2023-03-09T16:46:07.999Z,38.85
2023-03-09T16:48:35.549Z,33.53
2023-03-09T16:51:03.913Z,33.40
2023-03-09T16:53:32.052Z,32.67
2023-03-09T16:56:04.188Z,30.40
2023-03-09T16:58:32.381Z,34.67
2023-03-09T17:00:59.891Z,29.50
2023-03-09T17:03:27.962Z,38.90
2023-03-09T17:05:55.717Z,35.63
2023-03-09T17:08:23.279Z,36.40
2023-03-09T17:10:51.081Z,35.57
2023-03-09T17:13:18.632Z,32.30
2023-03-09T17:15:46.282Z,37.00
2023-03-09T17:18:17.577Z,41.73
2023-03-09T17:20:48.537Z,36.60
2023-03-09T17:23:16.189Z,47.33
2023-03-09T17:25:43.840Z,43.27
2023-03-09T17:28:11.492Z,45.20
2023-03-09T17:30:46.127Z,42.00
2023-03-09T17:33:14.529Z,43.13
2023-03-09T17:35:42.287Z,45.73
2023-03-09T17:38:11.351Z,46.27
2023-03-09T17:40:56.927Z,44.47
2023-03-09T17:43:24.989Z,51.57
2023-03-09T17:45:59.716Z,55.10
2023-03-09T17:48:27.635Z,45.30
2023-03-09T17:51:02.419Z,46.67
2023-03-09T17:53:30.201Z,50.77
2023-03-09T17:56:01.672Z,52.43
2023-03-09T17:58:29.494Z,48.07
2023-03-09T18:00:57.483Z,48.17
2023-03-09T18:03:25.203Z,49.00
2023-03-09T18:05:52.764Z,54.70
2023-03-09T18:08:20.471Z,49.50
2023-03-09T18:10:48.000Z,50.77
2023-03-09T18:13:15.555Z,45.00
2023-03-09T18:15:43.070Z,45.77
2023-03-09T18:18:10.845Z,42.87
2023-03-09T18:20:38.374Z,37.90
2023-03-09T18:23:06.115Z,50.00
2023-03-09T18:25:33.636Z,45.03
2023-03-09T18:28:01.403Z,46.30
2023-03-09T18:30:29.000Z,45.60
2023-03-09T18:32:57.321Z,39.60
2023-03-09T18:35:25.053Z,46.27
2023-03-09T18:37:53.428Z,38.27
2023-03-09T18:40:20.949Z,35.20
2023-03-09T18:42:48.512Z,38.13
2023-03-09T18:45:16.048Z,34.93
2023-03-09T18:47:43.546Z,29.00
2023-03-09T18:50:11.512Z,26.77
2023-03-09T18:52:39.111Z,32.47
2023-03-09T18:55:06.982Z,31.10
2023-03-09T18:57:34.704Z,31.83
2023-03-09T19:00:02.250Z,28.47
2023-03-09T19:02:29.885Z,25.67
2023-03-09T19:04:57.581Z,30.47
2023-03-09T19:07:25.204Z,27.67
2023-03-09T19:09:53.263Z,21.07
2023-03-09T19:12:20.824Z,20.07
2023-03-09T19:14:57.368Z,22.43
2023-03-09T19:17:26.621Z,23.37
2023-03-09T19:19:54.412Z,23.73
2023-03-09T19:22:24.210Z,20.67
2023-03-09T19:24:52.104Z,18.63
2023-03-09T19:27:19.646Z,17.87
2023-03-09T19:29:47.125Z,19.67
2023-03-09T19:32:14.847Z,22.73
2023-03-09T19:34:42.489Z,20.63
2023-03-09T19:37:10.118Z,16.90
2023-03-09T19:39:37.717Z,18.37
2023-03-09T19:42:05.426Z,24.43
2023-03-09T19:44:33.137Z,20.47
2023-03-09T19:47:00.971Z,19.70
2023-03-09T19:49:28.537Z,24.10
2023-03-09T19:51:56.500Z,20.40
2023-03-09T19:54:24.908Z,23.27
2023-03-09T19:56:52.598Z,25.73
2023-03-09T19:59:20.106Z,20.77
2023-03-09T20:01:49.127Z,22.93
2023-03-09T20:04:20.694Z,21.77
2023-03-09T20:06:49.982Z,26.67
2023-03-09T20:09:18.350Z,20.97
2023-03-09T20:11:45.986Z,20.70
2023-03-09T20:14:13.834Z,19.70
2023-03-09T20:16:41.974Z,20.43
2023-03-09T20:19:11.669Z,18.57
2023-03-09T20:21:39.215Z,29.53
2023-03-09T20:24:08.059Z,22.87
2023-03-09T20:26:36.921Z,20.63
2023-03-09T20:29:04.500Z,19.33
2023-03-09T20:31:37.078Z,19.90
2023-03-09T20:34:08.291Z,15.57
2023-03-09T20:36:36.676Z,19.53
2023-03-09T20:39:05.205Z,18.23
2023-03-09T20:41:32.816Z,20.53
2023-03-09T20:44:00.365Z,17.10
2023-03-09T20:46:28.260Z,16.93
2023-03-09T20:48:57.052Z,19.53
2023-03-09T20:51:25.502Z,22.63
2023-03-09T20:53:53.872Z,14.53
2023-03-09T20:56:22.567Z,18.37
2023-03-09T20:58:50.122Z,17.67
2023-03-09T21:01:21.987Z,20.37
2023-03-09T21:03:49.641Z,20.63
2023-03-09T21:06:17.902Z,18.73
2023-03-09T21:08:45.882Z,16.13
2023-03-09T21:11:14.738Z,20.93
2023-03-09T21:13:42.460Z,14.03
2023-03-09T21:16:11.963Z,19.80
2023-03-09T21:18:39.633Z,17.97
2023-03-09T21:21:07.241Z,11.40
2023-03-09T21:23:34.847Z,13.43
2023-03-09T21:26:03.715Z,19.67
2023-03-09T21:28:31.400Z,18.20
2023-03-09T21:30:59.186Z,16.63
2023-03-09T21:33:26.830Z,14.03
2023-03-09T21:35:54.477Z,17.40
2023-03-09T21:38:22.319Z,19.73
2023-03-09T21:40:49.860Z,17.13
2023-03-09T21:43:17.446Z,22.10
2023-03-09T21:45:45.106Z,16.57
2023-03-09T21:48:12.702Z,24.90
2023-03-09T21:50:40.220Z,21.07
2023-03-09T21:53:07.863Z,23.77
2023-03-09T21:55:35.566Z,24.80
2023-03-09T21:58:03.100Z,22.37
2023-03-09T22:00:30.617Z,24.27
2023-03-09T22:02:58.781Z,18.53
2023-03-09T22:05:26.559Z,24.67
2023-03-09T22:07:54.908Z,21.93
2023-03-09T22:10:22.609Z,18.83
2023-03-09T22:12:50.299Z,22.60
2023-03-09T22:15:17.874Z,21.90
2023-03-09T22:17:45.482Z,21.00
2023-03-09T22:20:13.169Z,19.90
2023-03-09T22:22:41.952Z,20.30
2023-03-09T22:25:10.648Z,21.90
2023-03-09T22:27:38.260Z,23.60
2023-03-09T22:30:06.514Z,19.43
2023-03-09T22:32:34.223Z,25.17
2023-03-09T22:35:01.740Z,22.17
2023-03-09T22:37:29.328Z,16.60
2023-03-09T22:39:56.843Z,12.30
2023-03-09T22:42:24.502Z,22.60
2023-03-09T22:44:52.580Z,18.47
2023-03-09T22:47:20.557Z,22.80
2023-03-09T22:49:48.321Z,17.87
2023-03-09T22:52:15.872Z,14.63
2023-03-09T22:54:47.356Z,14.03
2023-03-09T22:57:14.962Z,17.83
2023-03-09T22:59:42.513Z,16.20
2023-03-09T23:02:10.429Z,17.30
2023-03-09T23:04:37.917Z,17.13
2023-03-09T23:07:05.536Z,14.43
2023-03-09T23:09:33.027Z,6.63
2023-03-09T23:12:00.644Z,12.37
2023-03-09T23:14:28.329Z,10.80
2023-03-09T23:16:56.048Z,9.13
2023-03-09T23:19:23.629Z,8.43
2023-03-09T23:21:51.201Z,8.90
2023-03-09T23:24:18.736Z,6.77
2023-03-09T23:26:46.347Z,5.10
2023-03-09T23:29:13.842Z,4.13
2023-03-09T23:31:41.468Z,7.60
2023-03-09T23:34:09.038Z,8.70
2023-03-09T23:36:36.596Z,4.67
2023-03-09T23:39:04.595Z,4.10
2023-03-09T23:41:32.650Z,7.90
2023-03-09T23:44:00.138Z,4.10
2023-03-09T23:46:27.827Z,2.20
2023-03-09T23:48:55.359Z,3.73
2023-03-09T23:51:23.333Z,2.53
2023-03-09T23:53:51.006Z,6.00
2023-03-09T23:56:19.072Z,1.30
2023-03-09T23:58:48.260Z,2.23
